sensor_id;sensor_type;location;lat;lon;timestamp;P1;durP1;ratioP1;P2;durP2;ratioP2
65289;SDS011;51893;59.754;10.110;2024-02-21T00:00:38;8.10;;;5.90;;
65289;SDS011;51893;59.754;10.110;2024-02-21T00:03:27;10.00;;;5.90;;
65289;SDS011;51893;59.754;10.110;2024-02-21T00:05:55;10.30;;;5.80;;
65289;SDS011;51893;59.754;10.110;2024-02-21T00:08:24;10.90;;;5.70;;
65289;SDS011;51893;59.754;10.110;2024-02-21T00:10:53;10.20;;;6.10;;
65289;SDS011;51893;59.754;10.110;2024-02-21T00:13:22;9.00;;;5.40;;
65289;SDS011;51893;59.754;10.110;2024-02-21T00:15:51;10.90;;;6.30;;
65289;SDS011;51893;59.754;10.110;2024-02-21T00:18:19;10.00;;;6.40;;
65289;SDS011;51893;59.754;10.110;2024-02-21T00:20:47;10.20;;;5.80;;
65289;SDS011;51893;59.754;10.110;2024-02-21T00:23:16;11.50;;;6.80;;
65289;SDS011;51893;59.754;10.110;2024-02-21T00:25:43;10.20;;;6.40;;
65289;SDS011;51893;59.754;10.110;2024-02-21T00:28:12;10.70;;;6.40;;
65289;SDS011;51893;59.754;10.110;2024-02-21T00:30:40;9.80;;;6.50;;
65289;SDS011;51893;59.754;10.110;2024-02-21T00:33:09;13.80;;;7.40;;
65289;SDS011;51893;59.754;10.110;2024-02-21T00:35:38;16.10;;;7.90;;
65289;SDS011;51893;59.754;10.110;2024-02-21T00:38:06;14.40;;;7.90;;
65289;SDS011;51893;59.754;10.110;2024-02-21T00:40:35;15.20;;;8.00;;
65289;SDS011;51893;59.754;10.110;2024-02-21T00:43:03;11.30;;;7.20;;
65289;SDS011;51893;59.754;10.110;2024-02-21T00:45:31;10.20;;;6.60;;
65289;SDS011;51893;59.754;10.110;2024-02-21T00:47:59;10.20;;;7.10;;
65289;SDS011;51893;59.754;10.110;2024-02-21T00:50:27;11.80;;;6.40;;
65289;SDS011;51893;59.754;10.110;2024-02-21T00:52:55;11.20;;;6.70;;
65289;SDS011;51893;59.754;10.110;2024-02-21T00:55:23;10.30;;;6.50;;
65289;SDS011;51893;59.754;10.110;2024-02-21T00:57:51;11.10;;;7.00;;
65289;SDS011;51893;59.754;10.110;2024-02-21T01:00:19;8.10;;;4.40;;
65289;SDS011;51893;59.754;10.110;2024-02-21T01:02:47;13.50;;;6.20;;
65289;SDS011;51893;59.754;10.110;2024-02-21T01:05:20;12.20;;;7.00;;
65289;SDS011;51893;59.754;10.110;2024-02-21T01:07:48;8.30;;;5.20;;
65289;SDS011;51893;59.754;10.110;2024-02-21T01:10:17;9.20;;;5.40;;
65289;SDS011;51893;59.754;10.110;2024-02-21T01:12:45;12.80;;;7.10;;
65289;SDS011;51893;59.754;10.110;2024-02-21T01:15:13;14.00;;;7.40;;
65289;SDS011;51893;59.754;10.110;2024-02-21T01:17:41;14.50;;;7.30;;
65289;SDS011;51893;59.754;10.110;2024-02-21T01:20:10;13.00;;;7.30;;
65289;SDS011;51893;59.754;10.110;2024-02-21T01:22:39;15.10;;;8.00;;
65289;SDS011;51893;59.754;10.110;2024-02-21T01:25:07;16.70;;;8.10;;
65289;SDS011;51893;59.754;10.110;2024-02-21T01:27:35;14.00;;;7.40;;
65289;SDS011;51893;59.754;10.110;2024-02-21T01:30:04;20.00;;;8.70;;
65289;SDS011;51893;59.754;10.110;2024-02-21T01:32:33;18.00;;;7.40;;
65289;SDS011;51893;59.754;10.110;2024-02-21T01:35:02;16.30;;;7.50;;
65289;SDS011;51893;59.754;10.110;2024-02-21T01:37:31;19.50;;;9.50;;
65289;SDS011;51893;59.754;10.110;2024-02-21T01:39:59;16.10;;;6.80;;
65289;SDS011;51893;59.754;10.110;2024-02-21T01:42:27;14.00;;;7.40;;
65289;SDS011;51893;59.754;10.110;2024-02-21T01:44:55;12.30;;;6.60;;
65289;SDS011;51893;59.754;10.110;2024-02-21T01:47:24;14.40;;;7.90;;
65289;SDS011;51893;59.754;10.110;2024-02-21T01:49:55;15.10;;;7.20;;
65289;SDS011;51893;59.754;10.110;2024-02-21T01:52:24;14.70;;;8.30;;
65289;SDS011;51893;59.754;10.110;2024-02-21T01:54:52;11.80;;;5.80;;
65289;SDS011;51893;59.754;10.110;2024-02-21T01:57:20;6.30;;;3.80;;
65289;SDS011;51893;59.754;10.110;2024-02-21T01:59:52;15.40;;;8.50;;
65289;SDS011;51893;59.754;10.110;2024-02-21T02:02:21;15.40;;;8.40;;
65289;SDS011;51893;59.754;10.110;2024-02-21T02:04:50;14.60;;;8.30;;
65289;SDS011;51893;59.754;10.110;2024-02-21T02:07:19;14.90;;;8.10;;
65289;SDS011;51893;59.754;10.110;2024-02-21T02:09:48;10.00;;;6.60;;
65289;SDS011;51893;59.754;10.110;2024-02-21T02:12:17;13.90;;;10.20;;
65289;SDS011;51893;59.754;10.110;2024-02-21T02:14:46;16.00;;;8.30;;
65289;SDS011;51893;59.754;10.110;2024-02-21T02:17:14;15.10;;;8.20;;
65289;SDS011;51893;59.754;10.110;2024-02-21T02:19:44;16.40;;;9.10;;
65289;SDS011;51893;59.754;10.110;2024-02-21T02:22:18;16.10;;;9.00;;
65289;SDS011;51893;59.754;10.110;2024-02-21T02:24:51;15.50;;;8.50;;
65289;SDS011;51893;59.754;10.110;2024-02-21T02:27:19;15.30;;;8.40;;
65289;SDS011;51893;59.754;10.110;2024-02-21T02:29:47;18.50;;;8.80;;
65289;SDS011;51893;59.754;10.110;2024-02-21T02:32:16;16.60;;;8.80;;
65289;SDS011;51893;59.754;10.110;2024-02-21T02:34:44;17.80;;;10.00;;
65289;SDS011;51893;59.754;10.110;2024-02-21T02:37:12;18.30;;;9.00;;
65289;SDS011;51893;59.754;10.110;2024-02-21T02:39:40;20.00;;;8.60;;
65289;SDS011;51893;59.754;10.110;2024-02-21T02:42:10;11.80;;;6.40;;
65289;SDS011;51893;59.754;10.110;2024-02-21T02:44:39;16.60;;;8.70;;
65289;SDS011;51893;59.754;10.110;2024-02-21T02:47:08;12.00;;;6.90;;
65289;SDS011;51893;59.754;10.110;2024-02-21T02:49:37;11.50;;;6.40;;
65289;SDS011;51893;59.754;10.110;2024-02-21T02:52:05;11.30;;;7.20;;
65289;SDS011;51893;59.754;10.110;2024-02-21T02:54:33;10.10;;;4.80;;
65289;SDS011;51893;59.754;10.110;2024-02-21T02:57:01;19.60;;;7.80;;
65289;SDS011;51893;59.754;10.110;2024-02-21T02:59:31;13.40;;;7.10;;
65289;SDS011;51893;59.754;10.110;2024-02-21T03:02:00;16.10;;;8.00;;
65289;SDS011;51893;59.754;10.110;2024-02-21T03:04:28;13.30;;;7.90;;
65289;SDS011;51893;59.754;10.110;2024-02-21T03:06:57;9.90;;;5.60;;
65289;SDS011;51893;59.754;10.110;2024-02-21T03:09:26;12.60;;;7.40;;
65289;SDS011;51893;59.754;10.110;2024-02-21T03:11:53;9.00;;;5.20;;
65289;SDS011;51893;59.754;10.110;2024-02-21T03:14:25;12.40;;;6.60;;
65289;SDS011;51893;59.754;10.110;2024-02-21T03:16:53;12.20;;;7.60;;
65289;SDS011;51893;59.754;10.110;2024-02-21T03:19:21;11.10;;;7.60;;
65289;SDS011;51893;59.754;10.110;2024-02-21T03:21:50;11.90;;;7.20;;
65289;SDS011;51893;59.754;10.110;2024-02-21T03:24:21;9.60;;;6.20;;
65289;SDS011;51893;59.754;10.110;2024-02-21T03:26:49;10.00;;;5.40;;
65289;SDS011;51893;59.754;10.110;2024-02-21T03:29:18;7.10;;;4.20;;
65289;SDS011;51893;59.754;10.110;2024-02-21T03:31:46;7.00;;;5.00;;
65289;SDS011;51893;59.754;10.110;2024-02-21T03:34:14;8.30;;;5.20;;
65289;SDS011;51893;59.754;10.110;2024-02-21T03:36:42;7.80;;;4.40;;
65289;SDS011;51893;59.754;10.110;2024-02-21T03:39:10;12.10;;;6.20;;
65289;SDS011;51893;59.754;10.110;2024-02-21T03:41:38;12.00;;;5.80;;
65289;SDS011;51893;59.754;10.110;2024-02-21T03:44:07;8.70;;;4.80;;
65289;SDS011;51893;59.754;10.110;2024-02-21T03:46:34;9.80;;;6.70;;
65289;SDS011;51893;59.754;10.110;2024-02-21T03:49:03;12.10;;;7.10;;
65289;SDS011;51893;59.754;10.110;2024-02-21T03:51:31;13.60;;;7.20;;
65289;SDS011;51893;59.754;10.110;2024-02-21T03:53:59;8.60;;;5.70;;
65289;SDS011;51893;59.754;10.110;2024-02-21T03:56:27;8.40;;;5.50;;
65289;SDS011;51893;59.754;10.110;2024-02-21T03:58:55;7.30;;;5.00;;
65289;SDS011;51893;59.754;10.110;2024-02-21T04:01:24;12.80;;;4.40;;
65289;SDS011;51893;59.754;10.110;2024-02-21T04:03:52;5.90;;;4.40;;
65289;SDS011;51893;59.754;10.110;2024-02-21T04:06:20;7.20;;;4.70;;
65289;SDS011;51893;59.754;10.110;2024-02-21T04:08:48;9.00;;;5.60;;
65289;SDS011;51893;59.754;10.110;2024-02-21T04:11:19;8.40;;;5.60;;
65289;SDS011;51893;59.754;10.110;2024-02-21T04:13:47;9.60;;;6.20;;
65289;SDS011;51893;59.754;10.110;2024-02-21T04:16:19;8.70;;;5.80;;
65289;SDS011;51893;59.754;10.110;2024-02-21T04:18:47;7.20;;;4.70;;
65289;SDS011;51893;59.754;10.110;2024-02-21T04:21:17;12.90;;;6.30;;
65289;SDS011;51893;59.754;10.110;2024-02-21T04:23:45;12.20;;;7.30;;
65289;SDS011;51893;59.754;10.110;2024-02-21T04:26:13;9.90;;;6.50;;
65289;SDS011;51893;59.754;10.110;2024-02-21T04:28:45;8.80;;;4.90;;
65289;SDS011;51893;59.754;10.110;2024-02-21T04:31:13;11.20;;;6.40;;
65289;SDS011;51893;59.754;10.110;2024-02-21T04:33:42;6.80;;;4.30;;
65289;SDS011;51893;59.754;10.110;2024-02-21T04:36:10;10.60;;;6.30;;
65289;SDS011;51893;59.754;10.110;2024-02-21T04:38:39;13.10;;;7.00;;
65289;SDS011;51893;59.754;10.110;2024-02-21T04:41:08;4.60;;;3.60;;
65289;SDS011;51893;59.754;10.110;2024-02-21T04:43:36;7.70;;;4.40;;
65289;SDS011;51893;59.754;10.110;2024-02-21T04:46:04;7.60;;;4.40;;
65289;SDS011;51893;59.754;10.110;2024-02-21T04:48:32;9.10;;;4.80;;
65289;SDS011;51893;59.754;10.110;2024-02-21T04:51:01;10.90;;;6.10;;
65289;SDS011;51893;59.754;10.110;2024-02-21T04:53:29;9.50;;;5.20;;
65289;SDS011;51893;59.754;10.110;2024-02-21T04:55:57;6.40;;;4.00;;
65289;SDS011;51893;59.754;10.110;2024-02-21T04:58:25;9.00;;;5.40;;
65289;SDS011;51893;59.754;10.110;2024-02-21T05:00:53;11.30;;;5.60;;
65289;SDS011;51893;59.754;10.110;2024-02-21T05:03:23;8.60;;;5.50;;
65289;SDS011;51893;59.754;10.110;2024-02-21T05:05:52;9.00;;;5.40;;
65289;SDS011;51893;59.754;10.110;2024-02-21T05:08:20;4.40;;;3.50;;
65289;SDS011;51893;59.754;10.110;2024-02-21T05:10:48;7.40;;;5.00;;
65289;SDS011;51893;59.754;10.110;2024-02-21T05:13:17;9.30;;;6.20;;
65289;SDS011;51893;59.754;10.110;2024-02-21T05:15:45;10.20;;;6.00;;
65289;SDS011;51893;59.754;10.110;2024-02-21T05:18:13;10.90;;;5.60;;
65289;SDS011;51893;59.754;10.110;2024-02-21T05:20:41;9.90;;;5.20;;
65289;SDS011;51893;59.754;10.110;2024-02-21T05:23:10;7.40;;;4.10;;
65289;SDS011;51893;59.754;10.110;2024-02-21T05:25:38;8.30;;;5.70;;
65289;SDS011;51893;59.754;10.110;2024-02-21T05:28:06;6.60;;;4.70;;
65289;SDS011;51893;59.754;10.110;2024-02-21T05:30:37;10.20;;;5.30;;
65289;SDS011;51893;59.754;10.110;2024-02-21T05:33:06;6.10;;;3.80;;
65289;SDS011;51893;59.754;10.110;2024-02-21T05:35:35;5.70;;;4.10;;
65289;SDS011;51893;59.754;10.110;2024-02-21T05:38:04;7.10;;;4.70;;
65289;SDS011;51893;59.754;10.110;2024-02-21T05:40:35;4.90;;;2.90;;
65289;SDS011;51893;59.754;10.110;2024-02-21T05:43:04;3.50;;;3.10;;
65289;SDS011;51893;59.754;10.110;2024-02-21T05:45:32;3.20;;;2.80;;
65289;SDS011;51893;59.754;10.110;2024-02-21T05:48:00;8.10;;;4.60;;
65289;SDS011;51893;59.754;10.110;2024-02-21T05:50:28;2.20;;;2.10;;
65289;SDS011;51893;59.754;10.110;2024-02-21T05:52:56;8.00;;;4.10;;
65289;SDS011;51893;59.754;10.110;2024-02-21T05:55:24;4.80;;;3.20;;
65289;SDS011;51893;59.754;10.110;2024-02-21T05:57:53;4.70;;;3.10;;
65289;SDS011;51893;59.754;10.110;2024-02-21T06:00:23;4.80;;;3.80;;
65289;SDS011;51893;59.754;10.110;2024-02-21T06:02:52;5.20;;;3.20;;
65289;SDS011;51893;59.754;10.110;2024-02-21T06:05:20;3.40;;;2.90;;
65289;SDS011;51893;59.754;10.110;2024-02-21T06:07:48;3.50;;;2.50;;
65289;SDS011;51893;59.754;10.110;2024-02-21T06:10:17;3.20;;;2.80;;
65289;SDS011;51893;59.754;10.110;2024-02-21T06:12:45;3.40;;;2.80;;
65289;SDS011;51893;59.754;10.110;2024-02-21T06:15:13;4.20;;;3.50;;
65289;SDS011;51893;59.754;10.110;2024-02-21T06:17:41;2.50;;;2.20;;
65289;SDS011;51893;59.754;10.110;2024-02-21T06:20:10;4.20;;;3.00;;
65289;SDS011;51893;59.754;10.110;2024-02-21T06:22:38;2.60;;;2.10;;
65289;SDS011;51893;59.754;10.110;2024-02-21T06:25:07;3.10;;;2.40;;
65289;SDS011;51893;59.754;10.110;2024-02-21T06:27:37;3.70;;;2.50;;
65289;SDS011;51893;59.754;10.110;2024-02-21T06:30:05;7.60;;;3.90;;
65289;SDS011;51893;59.754;10.110;2024-02-21T06:32:34;3.60;;;2.20;;
65289;SDS011;51893;59.754;10.110;2024-02-21T06:35:02;4.70;;;3.40;;
65289;SDS011;51893;59.754;10.110;2024-02-21T06:37:31;4.70;;;3.20;;
65289;SDS011;51893;59.754;10.110;2024-02-21T06:40:00;5.30;;;3.40;;
65289;SDS011;51893;59.754;10.110;2024-02-21T06:42:28;4.00;;;3.10;;
65289;SDS011;51893;59.754;10.110;2024-02-21T06:44:57;4.90;;;3.80;;
65289;SDS011;51893;59.754;10.110;2024-02-21T06:47:25;6.40;;;3.80;;
65289;SDS011;51893;59.754;10.110;2024-02-21T06:49:53;4.40;;;3.30;;
65289;SDS011;51893;59.754;10.110;2024-02-21T06:52:21;5.70;;;3.40;;
65289;SDS011;51893;59.754;10.110;2024-02-21T06:54:50;4.30;;;3.20;;
65289;SDS011;51893;59.754;10.110;2024-02-21T06:57:19;4.10;;;2.80;;
65289;SDS011;51893;59.754;10.110;2024-02-21T06:59:47;1.70;;;1.60;;
65289;SDS011;51893;59.754;10.110;2024-02-21T07:02:15;4.50;;;3.50;;
65289;SDS011;51893;59.754;10.110;2024-02-21T07:04:43;4.90;;;3.30;;
65289;SDS011;51893;59.754;10.110;2024-02-21T07:07:11;5.70;;;3.70;;
65289;SDS011;51893;59.754;10.110;2024-02-21T07:09:40;5.30;;;3.30;;
65289;SDS011;51893;59.754;10.110;2024-02-21T07:12:08;5.20;;;3.50;;
65289;SDS011;51893;59.754;10.110;2024-02-21T07:14:38;4.30;;;3.40;;
65289;SDS011;51893;59.754;10.110;2024-02-21T07:17:07;4.70;;;3.70;;
65289;SDS011;51893;59.754;10.110;2024-02-21T07:19:35;4.20;;;3.50;;
65289;SDS011;51893;59.754;10.110;2024-02-21T07:22:03;7.40;;;3.70;;
65289;SDS011;51893;59.754;10.110;2024-02-21T07:24:31;4.80;;;3.40;;
65289;SDS011;51893;59.754;10.110;2024-02-21T07:27:00;4.30;;;3.40;;
65289;SDS011;51893;59.754;10.110;2024-02-21T07:29:35;4.00;;;2.90;;
65289;SDS011;51893;59.754;10.110;2024-02-21T07:32:03;3.60;;;2.30;;
65289;SDS011;51893;59.754;10.110;2024-02-21T07:34:31;5.70;;;3.40;;
65289;SDS011;51893;59.754;10.110;2024-02-21T07:37:02;3.50;;;3.00;;
65289;SDS011;51893;59.754;10.110;2024-02-21T07:39:36;2.30;;;1.80;;
65289;SDS011;51893;59.754;10.110;2024-02-21T07:42:05;3.30;;;2.60;;
65289;SDS011;51893;59.754;10.110;2024-02-21T07:44:33;1.80;;;1.30;;
65289;SDS011;51893;59.754;10.110;2024-02-21T07:47:02;3.70;;;2.90;;
65289;SDS011;51893;59.754;10.110;2024-02-21T07:49:30;5.90;;;3.70;;
65289;SDS011;51893;59.754;10.110;2024-02-21T07:52:00;5.40;;;3.40;;
65289;SDS011;51893;59.754;10.110;2024-02-21T07:54:28;3.00;;;2.30;;
65289;SDS011;51893;59.754;10.110;2024-02-21T07:56:56;4.70;;;2.90;;
65289;SDS011;51893;59.754;10.110;2024-02-21T07:59:25;5.30;;;3.20;;
65289;SDS011;51893;59.754;10.110;2024-02-21T08:01:56;2.70;;;2.20;;
65289;SDS011;51893;59.754;10.110;2024-02-21T08:04:26;4.40;;;3.20;;
65289;SDS011;51893;59.754;10.110;2024-02-21T08:06:54;2.60;;;2.30;;
65289;SDS011;51893;59.754;10.110;2024-02-21T08:09:23;5.80;;;3.60;;
65289;SDS011;51893;59.754;10.110;2024-02-21T08:11:51;5.90;;;3.70;;
65289;SDS011;51893;59.754;10.110;2024-02-21T08:14:20;3.90;;;2.60;;
65289;SDS011;51893;59.754;10.110;2024-02-21T08:16:49;5.60;;;3.80;;
65289;SDS011;51893;59.754;10.110;2024-02-21T08:19:17;5.90;;;3.80;;
65289;SDS011;51893;59.754;10.110;2024-02-21T08:21:45;5.10;;;3.60;;
65289;SDS011;51893;59.754;10.110;2024-02-21T08:24:16;5.30;;;3.70;;
65289;SDS011;51893;59.754;10.110;2024-02-21T08:26:44;6.20;;;3.80;;
65289;SDS011;51893;59.754;10.110;2024-02-21T08:29:12;5.40;;;3.10;;
65289;SDS011;51893;59.754;10.110;2024-02-21T08:31:41;4.90;;;3.60;;
65289;SDS011;51893;59.754;10.110;2024-02-21T08:34:11;4.10;;;3.20;;
65289;SDS011;51893;59.754;10.110;2024-02-21T08:36:43;7.30;;;4.10;;
65289;SDS011;51893;59.754;10.110;2024-02-21T08:39:11;6.00;;;3.40;;
65289;SDS011;51893;59.754;10.110;2024-02-21T08:41:39;2.70;;;2.10;;
65289;SDS011;51893;59.754;10.110;2024-02-21T08:44:23;4.00;;;2.70;;
65289;SDS011;51893;59.754;10.110;2024-02-21T08:46:54;3.30;;;2.90;;
65289;SDS011;51893;59.754;10.110;2024-02-21T08:49:25;2.10;;;2.00;;
65289;SDS011;51893;59.754;10.110;2024-02-21T08:52:03;2.60;;;1.70;;
65289;SDS011;51893;59.754;10.110;2024-02-21T08:54:33;2.00;;;1.70;;
65289;SDS011;51893;59.754;10.110;2024-02-21T08:57:02;3.10;;;2.50;;
65289;SDS011;51893;59.754;10.110;2024-02-21T08:59:32;4.00;;;2.60;;
65289;SDS011;51893;59.754;10.110;2024-02-21T09:02:00;3.10;;;2.90;;
65289;SDS011;51893;59.754;10.110;2024-02-21T09:04:28;2.00;;;1.60;;
65289;SDS011;51893;59.754;10.110;2024-02-21T09:06:56;1.60;;;1.50;;
65289;SDS011;51893;59.754;10.110;2024-02-21T09:09:25;3.90;;;2.90;;
65289;SDS011;51893;59.754;10.110;2024-02-21T09:11:56;3.10;;;2.20;;
65289;SDS011;51893;59.754;10.110;2024-02-21T09:14:25;1.90;;;1.70;;
65289;SDS011;51893;59.754;10.110;2024-02-21T09:16:55;3.40;;;2.10;;
65289;SDS011;51893;59.754;10.110;2024-02-21T09:19:23;3.60;;;3.00;;
65289;SDS011;51893;59.754;10.110;2024-02-21T09:21:51;2.70;;;2.50;;
65289;SDS011;51893;59.754;10.110;2024-02-21T09:24:20;2.60;;;2.30;;
65289;SDS011;51893;59.754;10.110;2024-02-21T09:26:47;2.20;;;1.40;;
65289;SDS011;51893;59.754;10.110;2024-02-21T09:29:16;4.20;;;2.10;;
65289;SDS011;51893;59.754;10.110;2024-02-21T09:31:44;2.00;;;1.70;;
65289;SDS011;51893;59.754;10.110;2024-02-21T09:34:13;3.10;;;2.50;;
65289;SDS011;51893;59.754;10.110;2024-02-21T09:36:41;3.20;;;2.90;;
65289;SDS011;51893;59.754;10.110;2024-02-21T09:39:10;5.20;;;2.40;;
65289;SDS011;51893;59.754;10.110;2024-02-21T09:41:45;2.60;;;2.00;;
65289;SDS011;51893;59.754;10.110;2024-02-21T09:44:24;3.20;;;2.60;;
65289;SDS011;51893;59.754;10.110;2024-02-21T09:49:35;3.40;;;2.40;;
65289;SDS011;51893;59.754;10.110;2024-02-21T09:52:07;3.70;;;2.70;;
65289;SDS011;51893;59.754;10.110;2024-02-21T09:54:36;3.50;;;2.30;;
65289;SDS011;51893;59.754;10.110;2024-02-21T09:57:05;3.50;;;2.50;;
65289;SDS011;51893;59.754;10.110;2024-02-21T09:59:33;1.60;;;1.40;;
65289;SDS011;51893;59.754;10.110;2024-02-21T10:02:02;2.50;;;2.10;;
65289;SDS011;51893;59.754;10.110;2024-02-21T10:04:30;5.00;;;2.60;;
65289;SDS011;51893;59.754;10.110;2024-02-21T10:07:00;5.30;;;2.70;;
65289;SDS011;51893;59.754;10.110;2024-02-21T10:09:28;4.30;;;2.70;;
65289;SDS011;51893;59.754;10.110;2024-02-21T10:12:10;8.00;;;2.80;;
65289;SDS011;51893;59.754;10.110;2024-02-21T10:14:41;3.20;;;2.50;;
65289;SDS011;51893;59.754;10.110;2024-02-21T10:17:16;4.50;;;3.10;;
65289;SDS011;51893;59.754;10.110;2024-02-21T10:19:46;4.10;;;3.20;;
65289;SDS011;51893;59.754;10.110;2024-02-21T10:22:15;3.10;;;2.80;;
65289;SDS011;51893;59.754;10.110;2024-02-21T10:24:46;3.50;;;2.60;;
65289;SDS011;51893;59.754;10.110;2024-02-21T10:27:14;4.60;;;3.00;;
65289;SDS011;51893;59.754;10.110;2024-02-21T10:29:49;3.00;;;2.50;;
65289;SDS011;51893;59.754;10.110;2024-02-21T10:32:19;4.80;;;2.70;;
65289;SDS011;51893;59.754;10.110;2024-02-21T10:34:47;3.60;;;2.90;;
65289;SDS011;51893;59.754;10.110;2024-02-21T10:37:20;6.20;;;3.10;;
65289;SDS011;51893;59.754;10.110;2024-02-21T10:39:48;4.20;;;3.10;;
65289;SDS011;51893;59.754;10.110;2024-02-21T10:42:21;4.80;;;3.70;;
65289;SDS011;51893;59.754;10.110;2024-02-21T10:44:51;4.60;;;3.40;;
65289;SDS011;51893;59.754;10.110;2024-02-21T10:47:22;4.90;;;3.60;;
65289;SDS011;51893;59.754;10.110;2024-02-21T10:49:58;2.90;;;2.30;;
65289;SDS011;51893;59.754;10.110;2024-02-21T10:55:20;2.70;;;1.90;;
65289;SDS011;51893;59.754;10.110;2024-02-21T10:57:57;3.70;;;2.90;;
65289;SDS011;51893;59.754;10.110;2024-02-21T11:00:29;3.00;;;2.30;;
65289;SDS011;51893;59.754;10.110;2024-02-21T11:02:59;4.70;;;3.20;;
65289;SDS011;51893;59.754;10.110;2024-02-21T11:05:29;4.40;;;2.90;;
65289;SDS011;51893;59.754;10.110;2024-02-21T11:07:58;3.50;;;2.40;;
65289;SDS011;51893;59.754;10.110;2024-02-21T11:10:27;3.30;;;2.50;;
65289;SDS011;51893;59.754;10.110;2024-02-21T11:13:08;4.00;;;3.20;;
65289;SDS011;51893;59.754;10.110;2024-02-21T11:15:37;3.10;;;2.30;;
65289;SDS011;51893;59.754;10.110;2024-02-21T11:18:05;2.80;;;2.50;;
65289;SDS011;51893;59.754;10.110;2024-02-21T11:20:38;3.30;;;3.00;;
65289;SDS011;51893;59.754;10.110;2024-02-21T11:23:06;2.50;;;1.80;;
65289;SDS011;51893;59.754;10.110;2024-02-21T11:25:34;5.20;;;3.50;;
65289;SDS011;51893;59.754;10.110;2024-02-21T11:28:03;3.70;;;2.60;;
65289;SDS011;51893;59.754;10.110;2024-02-21T11:30:36;4.10;;;2.40;;
65289;SDS011;51893;59.754;10.110;2024-02-21T11:33:08;3.40;;;2.40;;
65289;SDS011;51893;59.754;10.110;2024-02-21T11:35:36;5.30;;;3.40;;
65289;SDS011;51893;59.754;10.110;2024-02-21T11:38:11;4.00;;;3.20;;
65289;SDS011;51893;59.754;10.110;2024-02-21T11:40:46;4.70;;;3.70;;
65289;SDS011;51893;59.754;10.110;2024-02-21T11:43:15;3.80;;;2.50;;
65289;SDS011;51893;59.754;10.110;2024-02-21T11:45:45;5.80;;;3.10;;
65289;SDS011;51893;59.754;10.110;2024-02-21T11:48:14;3.90;;;2.90;;
65289;SDS011;51893;59.754;10.110;2024-02-21T11:50:42;3.90;;;2.60;;
65289;SDS011;51893;59.754;10.110;2024-02-21T11:53:10;3.10;;;2.80;;
65289;SDS011;51893;59.754;10.110;2024-02-21T11:55:39;2.60;;;2.40;;
65289;SDS011;51893;59.754;10.110;2024-02-21T11:58:07;3.80;;;3.00;;
65289;SDS011;51893;59.754;10.110;2024-02-21T12:00:37;3.70;;;3.40;;
65289;SDS011;51893;59.754;10.110;2024-02-21T12:03:05;4.00;;;3.30;;
65289;SDS011;51893;59.754;10.110;2024-02-21T12:05:34;4.50;;;3.60;;
65289;SDS011;51893;59.754;10.110;2024-02-21T12:08:04;4.20;;;3.30;;
65289;SDS011;51893;59.754;10.110;2024-02-21T12:10:32;4.10;;;3.30;;
65289;SDS011;51893;59.754;10.110;2024-02-21T12:13:11;4.60;;;3.40;;
65289;SDS011;51893;59.754;10.110;2024-02-21T12:15:39;3.40;;;3.10;;
65289;SDS011;51893;59.754;10.110;2024-02-21T12:18:10;4.00;;;2.90;;
65289;SDS011;51893;59.754;10.110;2024-02-21T12:20:39;3.00;;;2.50;;
65289;SDS011;51893;59.754;10.110;2024-02-21T12:23:10;4.20;;;3.20;;
65289;SDS011;51893;59.754;10.110;2024-02-21T12:25:38;4.00;;;3.20;;
65289;SDS011;51893;59.754;10.110;2024-02-21T12:28:08;3.80;;;3.50;;
65289;SDS011;51893;59.754;10.110;2024-02-21T12:30:36;3.10;;;2.90;;
65289;SDS011;51893;59.754;10.110;2024-02-21T12:33:09;3.50;;;3.00;;
65289;SDS011;51893;59.754;10.110;2024-02-21T12:35:37;4.70;;;3.20;;
65289;SDS011;51893;59.754;10.110;2024-02-21T12:38:05;3.70;;;2.90;;
65289;SDS011;51893;59.754;10.110;2024-02-21T12:40:34;3.60;;;3.10;;
65289;SDS011;51893;59.754;10.110;2024-02-21T12:43:03;4.80;;;3.10;;
65289;SDS011;51893;59.754;10.110;2024-02-21T12:45:32;3.90;;;3.20;;
65289;SDS011;51893;59.754;10.110;2024-02-21T12:48:01;4.10;;;2.80;;
65289;SDS011;51893;59.754;10.110;2024-02-21T12:50:29;3.20;;;1.80;;
65289;SDS011;51893;59.754;10.110;2024-02-21T12:53:00;2.50;;;2.30;;
65289;SDS011;51893;59.754;10.110;2024-02-21T12:55:30;3.70;;;2.10;;
65289;SDS011;51893;59.754;10.110;2024-02-21T12:58:03;2.20;;;2.10;;
65289;SDS011;51893;59.754;10.110;2024-02-21T13:00:33;2.10;;;1.80;;
65289;SDS011;51893;59.754;10.110;2024-02-21T13:03:03;2.60;;;2.10;;
65289;SDS011;51893;59.754;10.110;2024-02-21T13:05:31;1.80;;;1.70;;
65289;SDS011;51893;59.754;10.110;2024-02-21T13:08:00;3.50;;;2.10;;
65289;SDS011;51893;59.754;10.110;2024-02-21T13:10:28;3.30;;;2.40;;
65289;SDS011;51893;59.754;10.110;2024-02-21T13:12:57;2.90;;;2.50;;
65289;SDS011;51893;59.754;10.110;2024-02-21T13:15:25;2.00;;;1.80;;
65289;SDS011;51893;59.754;10.110;2024-02-21T13:17:56;2.30;;;1.90;;
65289;SDS011;51893;59.754;10.110;2024-02-21T13:20:28;3.40;;;2.10;;
65289;SDS011;51893;59.754;10.110;2024-02-21T13:22:56;1.90;;;1.80;;
65289;SDS011;51893;59.754;10.110;2024-02-21T13:25:24;2.10;;;1.90;;
65289;SDS011;51893;59.754;10.110;2024-02-21T13:27:55;3.10;;;2.10;;
65289;SDS011;51893;59.754;10.110;2024-02-21T13:30:23;4.40;;;2.30;;
65289;SDS011;51893;59.754;10.110;2024-02-21T13:32:53;3.10;;;2.40;;
65289;SDS011;51893;59.754;10.110;2024-02-21T13:35:22;2.20;;;2.00;;
65289;SDS011;51893;59.754;10.110;2024-02-21T13:37:50;2.50;;;2.30;;
65289;SDS011;51893;59.754;10.110;2024-02-21T13:40:19;5.90;;;2.60;;
65289;SDS011;51893;59.754;10.110;2024-02-21T13:42:47;2.90;;;2.00;;
65289;SDS011;51893;59.754;10.110;2024-02-21T13:45:17;2.60;;;1.90;;
65289;SDS011;51893;59.754;10.110;2024-02-21T13:47:45;2.80;;;1.70;;
65289;SDS011;51893;59.754;10.110;2024-02-21T13:50:14;2.20;;;1.50;;
65289;SDS011;51893;59.754;10.110;2024-02-21T13:52:42;2.50;;;1.90;;
65289;SDS011;51893;59.754;10.110;2024-02-21T13:55:11;5.20;;;2.70;;
65289;SDS011;51893;59.754;10.110;2024-02-21T13:57:39;2.40;;;2.00;;
65289;SDS011;51893;59.754;10.110;2024-02-21T14:00:07;2.00;;;1.90;;
65289;SDS011;51893;59.754;10.110;2024-02-21T14:02:39;2.30;;;2.10;;
65289;SDS011;51893;59.754;10.110;2024-02-21T14:05:07;2.00;;;1.80;;
65289;SDS011;51893;59.754;10.110;2024-02-21T14:07:38;3.50;;;2.20;;
65289;SDS011;51893;59.754;10.110;2024-02-21T14:10:07;3.00;;;2.20;;
65289;SDS011;51893;59.754;10.110;2024-02-21T14:12:37;2.50;;;2.30;;
65289;SDS011;51893;59.754;10.110;2024-02-21T14:15:06;2.90;;;2.70;;
65289;SDS011;51893;59.754;10.110;2024-02-21T14:17:34;2.60;;;2.30;;
65289;SDS011;51893;59.754;10.110;2024-02-21T14:20:03;2.70;;;2.40;;
65289;SDS011;51893;59.754;10.110;2024-02-21T14:22:32;5.30;;;2.70;;
65289;SDS011;51893;59.754;10.110;2024-02-21T14:25:03;2.60;;;2.40;;
65289;SDS011;51893;59.754;10.110;2024-02-21T14:27:34;2.40;;;2.20;;
65289;SDS011;51893;59.754;10.110;2024-02-21T14:30:05;1.90;;;1.80;;
65289;SDS011;51893;59.754;10.110;2024-02-21T14:32:33;3.50;;;2.80;;
65289;SDS011;51893;59.754;10.110;2024-02-21T14:35:01;5.00;;;2.80;;
65289;SDS011;51893;59.754;10.110;2024-02-21T14:37:33;3.10;;;2.70;;
65289;SDS011;51893;59.754;10.110;2024-02-21T14:40:02;3.40;;;2.70;;
65289;SDS011;51893;59.754;10.110;2024-02-21T14:42:32;2.80;;;2.60;;
65289;SDS011;51893;59.754;10.110;2024-02-21T14:45:00;1.80;;;1.70;;
65289;SDS011;51893;59.754;10.110;2024-02-21T14:50:03;2.30;;;2.00;;